Varzea da Palma, Brazil
Current Conditions -  °F | °C
As of 9:00 PM on Sunday 21 Dec 2014 (Local Time) from SBMK Reporting Station
Light Rain Light Rain  
Wind Chill: 75°   Ceiling: 10000
Heat Index: 75°   Visibility: 6mi
Dew Point: 68°   Wind: 2mph
Humidity: 78%   Direction: 200°SSW
Pressure: 30"   Gusts: NA
Location:  17.6°S, 44.73°W
Report Text: SBMK 212300Z 20002KT 9999 -RA FEW045 OVC100 24/20 Q1016
Loading
Personal Weather Stations






























Interactive Weather Map New forecast layout! Learn more

10-Day Weather Forecast

Advertisements
Track Severe Weather on mobile